• Join FlightAware (Why Join?)
  • Login
  • US Flag 
12:44AM EST


 

Airport Tracker/Info


-or-


 

Live Flight TrackerFlight Track Log ✈ SWA315 ✈ 17-Apr-2013 ✈ KOAK - KDEN

Flight Track Log - Related Links

Times and Time Zones

All times are in EDT time to prevent confusion due to time zone crossing. See the SWA315 flight status page for this flight to view local times or setup timezone preferences in your user account.

Time Position Orientation Groundspeed Altitude Reporting Facility
EDT Latitude Longitude Course Direction KTS MPH feet Rate Location/Type
09:26AM 37.7167 -122.2667 76° East 162 186 1,900  Level Northern Cal TRACON
09:27AM 37.7500 -122.3333 302° West 238 274 5,500 4,020 Climbing Northern Cal TRACON
09:28AM 37.8000 -122.3500 345° North 243 280 9,600 4,200 Climbing Northern Cal TRACON
09:29AM 37.8500 -122.2833 46° Northeast 299 344 13,500 3,600 Climbing Northern Cal TRACON
09:30AM 37.8833 -122.1667 70° East 336 387 16,800 1,860 Climbing Northern Cal TRACON
09:31AM 37.9736 -121.9318 76° East  Level FlightAware Approximate
09:31AM 37.9006 -122.0197 82° East 357 411 17,700  Level Oakland Center
09:32AM 37.9225 -121.8947 77° East 364 419 18,900 600 Climbing Oakland Center
09:33AM 37.9444 -121.7711 77° East 361 415 19,000 1,020 Climbing Oakland Center
09:34AM 37.9653 -121.6464 78° East 361 415 21,000 2,280 Climbing Oakland Center
09:35AM 37.9869 -121.5197 78° East 368 423 23,700 2,520 Climbing Oakland Center
09:36AM 38.0108 -121.3783 78° East 394 453 26,200 2,400 Climbing Oakland Center
09:37AM 38.0350 -121.2378 78° East 408 470 28,600 2,040 Climbing Oakland Center
09:38AM 38.0600 -121.0903 78° East 426 490 30,400 1,680 Climbing Oakland Center
09:39AM 38.0900 -120.9394 76° East 441 507 32,100 1,800 Climbing Oakland Center
09:40AM 38.1261 -120.7908 73° East 444 511 34,100 1,740 Climbing Oakland Center
09:41AM 38.1622 -120.6444 73° East 439 505 35,700 1,140 Climbing Oakland Center
09:42AM 38.1956 -120.4881 75° East 456 525 36,500 1,140 Climbing Oakland Center
09:43AM 38.2225 -120.3264 78° East 467 537 38,100 1,140 Climbing Oakland Center
09:44AM 38.2511 -120.1644 77° East 470 541 38,900 780 Climbing Oakland Center
09:45AM 38.2872 -119.9619 77° East 485 558 39,700 780 Climbing Oakland Center
09:46AM 38.3150 -119.7889 78° East 498 573 40,600 600 Climbing Oakland Center
09:47AM 38.3453 -119.6167 77° East 498 573 41,000 180 Climbing Oakland Center
09:48AM 38.3717 -119.4533 78° East 497 572 41,000  Level Oakland Center
09:49AM 38.3997 -119.2842 78° East 493 567 41,000  Level Oakland Center
09:50AM 38.4278 -119.1158 78° East 488 562 41,000  Level Oakland Center
09:51AM 38.4553 -118.9439 78° East 494 568 41,000  Level Oakland Center
09:52AM 38.4811 -118.7731 79° East 494 568 41,000  Level Oakland Center
09:53AM 38.5081 -118.6044 78° East 490 564 41,000  Level Oakland Center
09:54AM 38.5353 -118.4358 78° East 489 563 41,000  Level Oakland Center
09:55AM 38.5675 -118.2308 79° East 492 566 41,000  Level Oakland Center
09:56AM 38.5886 -118.0881 79° East 489 563 41,000  Level Oakland Center
09:57AM 38.6156 -117.9175 79° East 489 563 41,000  Level Oakland Center
09:58AM 38.6456 -117.7142 79° East 485 558 41,000  Level Oakland Center
09:59AM 38.6706 -117.5428 79° East 485 558 41,000  Level Oakland Center
10:00AM 38.6956 -117.3736 79° East 482 555 41,000  Level Oakland Center
10:01AM 38.7047 -117.3056 80° East 482 555 41,000  Level Salt Lake Center
10:02AM 38.7297 -117.1367 79° East 479 551 41,000  Level Salt Lake Center
10:02AM 38.7444 -117.0375 79° East 475 547 41,000  Level Oakland Center
10:03AM 38.7683 -116.8675 80° East 479 551 41,000  Level Oakland Center
10:04AM 38.7775 -116.7997 80° East 479 551 41,000  Level Salt Lake Center
10:05AM 38.8058 -116.5967 80° East 481 554 41,000  Level Salt Lake Center
10:05AM 38.8156 -116.5289 80° East 481 554 41,000  Level Oakland Center
10:06AM 38.8400 -116.3575 80° East 486 559 41,000  Level Oakland Center
10:07AM 38.8533 -116.2561 80° East 484 557 41,000  Level Salt Lake Center
10:08AM 38.8764 -116.0850 80° East 486 559 41,000  Level Salt Lake Center
10:09AM 38.8983 -115.9133 81° East 487 560 41,000  Level Salt Lake Center
10:10AM 38.9200 -115.7406 81° East 489 563 41,000  Level Salt Lake Center
10:11AM 38.9444 -115.5672 80° East 493 567 41,000  Level Salt Lake Center
10:12AM 38.9656 -115.3917 81° East 495 570 41,000  Level Salt Lake Center
10:13AM 38.9925 -115.2044 79° East 502 578 41,000  Level Salt Lake Center
10:14AM 39.0153 -115.0311 80° East 496 571 41,000  Level Salt Lake Center
10:15AM 39.0364 -114.8589 81° East 489 563 41,000  Level Salt Lake Center
10:16AM 39.0575 -114.6881 81° East 486 559 41,000  Level Salt Lake Center
10:17AM 39.0789 -114.5158 81° East 487 560 41,000  Level Salt Lake Center
10:18AM 39.0986 -114.3408 82° East 491 565 41,000  Level Salt Lake Center
10:19AM 39.1200 -114.1669 81° East 492 566 41,000  Level Salt Lake Center
10:20AM 39.1431 -113.9572 82° East 493 567 41,000  Level Salt Lake Center
10:21AM 39.1642 -113.7817 81° East 495 570 41,000  Level Salt Lake Center
10:22AM 39.1847 -113.6058 81° East 496 571 41,000  Level Salt Lake Center
10:23AM 39.2036 -113.4294 82° East 496 571 41,000  Level Salt Lake Center
10:24AM 39.2228 -113.2547 82° East 493 567 41,000  Level Salt Lake Center
10:25AM 39.2425 -113.0781 82° East 496 571 41,000  Level Salt Lake Center
10:26AM 39.2608 -112.9028 82° East 494 568 41,000  Level Salt Lake Center
10:27AM 39.2789 -112.7269 82° East 495 570 41,000  Level Salt Lake Center
10:28AM 39.2986 -112.5453 82° East 498 573 41,000  Level Salt Lake Center
10:29AM 39.3281 -112.3717 78° East 497 572 41,000  Level Salt Lake Center
10:30AM 39.3611 -112.1997 76° East 496 571 41,000  Level Salt Lake Center
10:31AM 39.4000 -111.9928 76° East 496 571 41,000  Level Salt Lake Center
10:32AM 39.4314 -111.8211 77° East 496 571 41,000  Level Salt Lake Center
10:33AM 39.4631 -111.6478 77° East 496 571 41,000  Level Salt Lake Center
10:34AM 39.4939 -111.4747 77° East 497 572 41,000  Level Salt Lake Center
10:35AM 39.5250 -111.2997 77° East 499 574 41,000  Level Salt Lake Center
10:37AM 39.5586 -111.1031 77° East 502 578 41,000  Level Salt Lake Center
10:38AM 39.5878 -110.9333 77° East 504 580 41,000  Level Salt Lake Center
10:39AM 39.6172 -110.7628 77° East 505 581 41,000  Level Salt Lake Center
10:40AM 39.6508 -110.5633 78° East 506 582 41,000  Level Salt Lake Center
10:41AM 39.6803 -110.3911 77° East 512 589 41,000  Level Salt Lake Center
10:42AM 39.7153 -110.1906 77° East 511 588 41,000  Level Salt Lake Center
10:43AM 39.7439 -110.0175 78° East 512 589 41,000  Level Salt Lake Center
10:44AM 39.7703 -109.8444 79° East 510 587 41,000  Level Salt Lake Center
10:45AM 39.8036 -109.6436 78° East 509 586 41,000  Level Salt Lake Center
10:45AM 39.8214 -109.5275 79° East 507 583 41,000  Level Denver Center
10:46AM 39.8489 -109.3567 78° East 504 580 41,000  Level Denver Center
10:47AM 39.8631 -109.2742 77° East 501 577 41,000  Level Salt Lake Center
10:47AM 39.8808 -109.1589 79° East 500 575 41,000  Level Denver Center
10:48AM 39.8892 -109.1022 79° East 502 578 41,000  Level Salt Lake Center
10:49AM 39.9161 -108.9325 78° East 499 574 41,000  Level Salt Lake Center
10:49AM 39.9375 -108.7894 79° East 496 571 41,000  Level Denver Center
10:50AM 39.9642 -108.6169 79° East 501 577 41,000  Level Denver Center
10:52AM 39.9911 -108.4428 79° East 508 585 41,000  Level Denver Center
10:53AM 40.0211 -108.2397 79° East 509 586 41,000  Level Denver Center
10:54AM 40.0461 -108.0664 79° East 508 585 41,000  Level Denver Center
10:55AM 40.0783 -107.8642 78° East 509 586 41,000  Level Denver Center
10:56AM 40.1142 -107.6933 75° East 508 585 41,000  Level Denver Center
10:57AM 40.1478 -107.5244 75° East 503 579 41,000  Level Denver Center
10:58AM 40.1931 -107.3006 75° East 500 575 41,000  Level Denver Center
10:59AM 40.2319 -107.1050 75° East 499 574 41,000  Level Denver Center
11:00AM 40.2650 -106.9364 76° East 499 574 41,000 -480 Level Denver Center
11:01AM 40.2992 -106.7639 75° East 504 580 40,100 -1,080 Descending Denver Center
11:02AM 40.3333 -106.5842 76° East 505 581 38,800 -1,380 Descending Denver Center
11:03AM 40.3692 -106.3989 76° East 496 571 37,300 -1,500 Descending Denver Center
11:04AM 40.4056 -106.2047 76° East 491 565 35,800 -1,380 Descending Denver Center
11:05AM 40.4361 -106.0447 76° East 491 565 34,500 -1,320 Descending Denver Center
11:06AM 40.4983 -105.8856 63° Northeast 514 592 33,100 -1,440 Descending Denver Center
11:07AM 40.6383 -105.9256 348° North 468 539 31,600 -1,320 Descending Denver Center
11:08AM 40.6211 -106.0489 260° West 351 404 30,200 -1,140 Descending Denver Center
11:09AM 40.6261 -106.2056 272° West 381 438 29,000 -600 Descending Denver Center
11:10AM 40.6306 -106.3519 272° West 361 415 29,000  Level Denver Center
11:12AM 40.5647 -106.4197 218° Southwest 314 361 29,000 -540 Level Denver Center
11:13AM 40.4767 -106.3678 156° South 335 386 28,000 -540 Descending Denver Center
11:14AM 40.4606 -106.2403 99° East 377 434 28,000 -420 Level Denver Center
11:15AM 40.4508 -106.0878 95° East 386 444 27,200 -540 Descending Denver Center
11:16AM 40.4494 -105.9456 91° East 397 457 27,000 -360 Descending Denver Center
11:17AM 40.5531 -105.8894 22° Northeast 439 505 26,500 -780 Descending Denver Center
11:18AM 40.5908 -105.9978 295° West 351 404 25,400 -780 Descending Denver Center
11:19AM 40.5906 -106.1219 270° West 342 394 25,000 -240 Descending Denver Center
11:20AM 40.6014 -106.2600 276° West 345 397 25,000 -60 Level Denver Center
11:21AM 40.5856 -106.3714 259° West 336 387 24,900 -540 Descending Denver Center
11:22AM 40.5008 -106.3906 190° South 297 342 24,000 -480 Descending Denver Center
11:23AM 40.4650 -106.2950 116° Southeast 325 374 24,000 -240 Level Denver Center
11:24AM 40.4553 -106.1525 95° East 358 412 23,600 -540 Descending Denver Center
11:25AM 40.4467 -106.0247 95° East 353 406 23,000 -300 Descending Denver Center
11:26AM 40.4831 -105.9108 67° East 366 421 23,000  Level Denver Center
11:27AM 40.5694 -105.9581 337° Northwest 362 417 23,000  Level Denver Center
11:28AM 40.5531 -106.0678 259° West 313 360 23,000 -300 Level Denver Center
11:29AM 40.5294 -106.1744 254° West 299 344 22,400 -720 Descending Denver Center
11:30AM 40.4528 -106.1947 191° South 292 336 21,600 -1,020 Descending Denver Center
11:31AM 40.4078 -106.1000 122° Southeast 311 358 20,400 -780 Descending Denver Center
11:32AM 40.4000 -105.9881 95° East 306 352 20,000 -240 Descending Denver Center
11:33AM 40.3906 -105.8708 96° East 315 362 20,000  Level Denver Center
11:34AM 40.3808 -105.7531 96° East 322 371 20,000  Level Denver Center
11:35AM 40.3711 -105.6289 96° East 337 388 20,000  Level Denver Center
11:36AM 40.3619 -105.5025 95° East 343 395 20,000  Level Denver Center
11:37AM 40.3203 -105.3800 114° Southeast 312 359 20,000  Level Denver Center
11:38AM 40.2661 -105.2939 129° Southeast 306 352 20,000 -1,020 Level Denver Center
11:39AM 40.2061 -105.1994 130° Southeast 316 364 17,900 -1,800 Descending Denver Center
11:40AM 40.1506 -105.1125 130° Southeast 309 356 16,400 -1,500 Descending Denver Center
11:41AM 40.0933 -105.0247 130° Southeast 295 339 14,900 -1,500 Descending Denver Center
11:42AM 40.0408 -104.9433 130° Southeast 293 337 13,400 -960 Descending Denver Center
11:44AM 39.9914 -104.8661 130° Southeast 282 325 13,000 -960 Descending Denver Center
11:45AM 39.9506 -104.7661 118° Southeast 290 334 11,500 -1,020 Descending Denver Center
11:46AM 39.9092 -104.6772 121° Southeast 283 326 11,000 -300 Descending Denver Center
11:47AM 39.8697 -104.5906 121° Southeast 277 319 11,000  Level Denver Center
11:48AM 39.8275 -104.5067 123° Southeast 278 320 11,000 -300 Level Denver Center
11:49AM 39.7531 -104.4997 176° South 248 285 10,500 -840 Descending Denver Center
11:50AM 39.6872 -104.5014 181° South 239 275 9,400 -780 Descending Denver Center
11:51AM 39.6175 -104.5028 181° South 236 272 9,000 -720 Descending Denver Center
11:52AM 39.5517 -104.5031 180° South 236 272 8,000 -540 Descending Denver Center
11:53AM 39.5161 -104.5633 233° Southwest 243 280 8,000  Level Denver Center
11:54AM 39.5314 -104.6469 283° West 245 282 8,100  Climbing Denver Center
11:55AM 39.5867 -104.6447 North 205 236 8,000 -60 Descending Denver Center
11:56AM 39.6419 -104.6447 360° North 199 229 8,000  Level Denver Center
11:57AM 39.6983 -104.6433 North 191 220 8,000 -540 Level Denver Center
11:58AM 39.7519 -104.6433 360° North 193 222 7,000 -900 Descending Denver Center
11:59AM 39.7958 -104.6428 North 150 173 6,200 -840 Descending Denver Center
12:00PM 39.8333 -104.6414 North 136 157 5,400 -780 Descending Denver Center
12:02PM 39.8500 -104.6667 North  Level FlightAware Approximate
12:09PM 39.8617 -104.6732 North  Level Estimated
12:10PM 39.8617 -104.6732 North  Level Estimated